Time;durP1;ratioP1;P1;durP2;ratioP2;P2;SDS_P1;SDS_P2;PMS_P1;PMS_P2;Temp;Humidity;BMP_temperature;BMP_pressure;BME280_temperature;BME280_humidity;BME280_pressure;Samples;Min_cycle;Max_cycle;Signal;HPM_P1;HPM_P2
2021/11/10 00:01:29;;;;;;;12.00;5.28;;;;;;;-2.16;81.27;141749.72;1853526;77;22131;-60
2021/11/10 00:04:24;;;;;;;11.12;4.80;;;;;;;-2.19;81.37;141743.52;1853611;77;22175;-58
2021/11/10 00:06:59;;;;;;;11.33;5.40;;;;;;;-2.20;81.43;141741.06;1834987;77;22132;-58
2021/11/10 00:09:59;;;;;;;9.13;5.12;;;;;;;-2.21;81.49;141738.59;1834136;77;22259;-59
2021/11/10 00:12:35;;;;;;;10.65;5.45;;;;;;;-2.23;81.53;141734.84;1835002;77;22125;-59
2021/11/10 00:15:29;;;;;;;11.73;5.90;;;;;;;-2.24;81.61;141731.11;1834836;77;22595;-58
2021/11/10 00:18:04;;;;;;;9.28;4.62;;;;;;;-2.28;81.69;141722.45;1834982;77;22140;-61
2021/11/10 00:20:46;;;;;;;11.10;5.08;;;;;;;-2.31;81.83;141713.78;1853526;77;22188;-56
2021/11/10 00:23:22;;;;;;;11.45;5.87;;;;;;;-2.33;81.93;141708.81;1853543;77;22581;-62
2021/11/10 00:26:04;;;;;;;13.98;6.42;;;;;;;-2.35;82.01;141703.84;1853519;77;22228;-56
2021/11/10 00:28:47;;;;;;;12.58;5.95;;;;;;;-2.36;82.09;141701.39;1834181;77;22164;-60
2021/11/10 00:31:43;;;;;;;16.87;6.08;;;;;;;-2.35;82.21;141703.84;1834975;77;22623;-59
2021/11/10 00:34:38;;;;;;;15.32;5.60;;;;;;;-2.34;82.27;141707.58;1853493;77;22208;-63
2021/11/10 00:37:32;;;;;;;14.13;6.40;;;;;;;-2.38;82.36;141697.64;1834989;77;22148;-60
2021/11/10 00:40:09;;;;;;;15.90;6.10;;;;;;;-2.37;82.36;141698.87;1835010;77;22141;-58
2021/11/10 00:42:45;;;;;;;17.85;6.75;;;;;;;-2.36;82.33;141701.39;1834736;77;22159;-60
2021/11/10 00:45:20;;;;;;;15.25;6.22;;;;;;;-2.38;82.40;141696.41;1834996;77;22570;-60
2021/11/10 00:47:55;;;;;;;21.77;8.75;;;;;;;-2.35;82.45;141703.84;1834984;77;22559;-59
2021/11/10 00:50:50;;;;;;;15.20;6.42;;;;;;;-2.33;82.46;141708.81;1834946;77;22156;-58
2021/11/10 00:53:25;;;;;;;15.78;7.45;;;;;;;-2.30;82.43;141717.47;1834972;77;22583;-62
2021/11/10 00:56:00;;;;;;;15.90;7.00;;;;;;;-2.26;82.33;141726.19;1834999;77;22563;-59
2021/11/10 00:58:35;;;;;;;16.82;7.30;;;;;;;-2.24;82.26;141731.11;1834983;77;22604;-61
2021/11/10 01:01:10;;;;;;;19.12;8.30;;;;;;;-2.23;82.23;141734.84;1853518;77;22562;-58
2021/11/10 01:04:04;;;;;;;15.25;7.08;;;;;;;-2.19;82.13;141743.52;1835024;77;22160;-59
2021/11/10 01:06:45;;;;;;;14.63;7.28;;;;;;;-2.18;82.06;141746.03;1834278;77;22171;-60
2021/11/10 01:09:21;;;;;;;16.73;7.33;;;;;;;-2.16;82.02;141749.72;1834986;77;22207;-60
2021/11/10 01:11:58;;;;;;;20.30;8.53;;;;;;;-2.14;82.01;141755.92;1834765;77;22634;-60
2021/11/10 01:14:41;;;;;;;14.75;7.33;;;;;;;-2.10;81.93;141765.86;1834137;77;22607;-61
2021/11/10 01:17:16;;;;;;;20.05;8.75;;;;;;;-2.06;81.83;141775.81;1834972;77;22161;-59
2021/11/10 01:20:18;;;;;;;15.35;7.25;;;;;;;-2.08;81.75;141770.84;1853521;77;22163;-62
2021/11/10 01:23:18;;;;;;;18.25;8.83;;;;;;;-2.07;81.73;141773.30;1834197;77;22598;-59
2021/11/10 01:26:14;;;;;;;16.90;8.40;;;;;;;-2.06;81.68;141775.81;1834664;77;20099;-60
2021/11/10 01:29:14;;;;;;;16.12;7.97;;;;;;;-2.08;81.63;141770.84;1853548;77;22183;-58
2021/11/10 01:32:10;;;;;;;16.25;8.53;;;;;;;-2.10;81.66;141765.86;1834794;77;20100;-60
2021/11/10 01:34:45;;;;;;;18.65;8.68;;;;;;;-2.13;81.64;141758.44;1834994;77;22133;-60
2021/11/10 01:37:41;;;;;;;19.65;8.50;;;;;;;-2.15;81.67;141753.47;1834948;77;22136;-63
2021/11/10 01:40:39;;;;;;;17.50;8.05;;;;;;;-2.13;81.67;141757.20;1834888;77;22136;-59
2021/11/10 01:43:15;;;;;;;18.60;9.18;;;;;;;-2.19;81.71;141743.52;1835008;77;22124;-60
2021/11/10 01:46:09;;;;;;;16.45;7.85;;;;;;;-2.16;81.74;141749.72;1800790;79;22152;-61
2021/11/10 01:48:45;;;;;;;17.37;8.38;;;;;;;-2.16;81.72;141751.00;1834799;77;22181;-60
2021/11/10 01:51:27;;;;;;;17.00;8.38;;;;;;;-2.14;81.71;141755.92;1834049;77;22181;-61
2021/11/10 01:54:01;;;;;;;20.82;8.95;;;;;;;-2.16;81.72;141749.72;1835008;77;22208;-61
2021/11/10 01:56:36;;;;;;;19.30;9.88;;;;;;;-2.16;81.71;141749.72;1835058;77;22137;-61
2021/11/10 01:59:33;;;;;;;22.05;10.00;;;;;;;-2.17;81.78;141748.48;1834742;77;22162;-61
2021/11/10 02:04:54;;;;;;;18.32;10.03;;;;;;;-2.13;81.79;141758.44;1812501;78;28559;-59
2021/11/10 02:07:29;;;;;;;17.23;9.90;;;;;;;-2.04;81.85;141779.50;1801717;77;28544;-59
2021/11/10 02:10:07;;;;;;;17.57;9.15;;;;;;;-1.92;81.74;141808.06;1818480;77;22236;-60
2021/11/10 02:12:42;;;;;;;17.62;8.58;;;;;;;-1.97;81.63;141798.11;1818934;77;22156;-58
2021/11/10 02:15:20;;;;;;;19.00;9.25;;;;;;;-1.99;81.77;141791.91;1817343;77;22148;-59
2021/11/10 02:18:14;;;;;;;18.77;9.28;;;;;;;-1.93;81.89;141805.55;1818305;77;22234;-62
2021/11/10 02:20:50;;;;;;;15.55;8.75;;;;;;;-1.90;81.82;141813.03;1817070;77;22164;-61
2021/11/10 02:23:30;;;;;;;18.00;9.90;;;;;;;-1.91;81.81;141811.75;1853516;77;22184;-60
2021/11/10 02:26:13;;;;;;;18.62;9.63;;;;;;;-1.90;81.91;141813.03;1853544;77;22159;-59
2021/11/10 02:29:26;;;;;;;19.57;10.28;;;;;;;-1.81;81.80;141835.33;1818624;77;28024;-59
2021/11/10 02:32:00;;;;;;;17.40;9.98;;;;;;;-1.69;81.60;141865.13;1835009;77;22558;-61
2021/11/10 02:34:55;;;;;;;14.53;7.62;;;;;;;-1.60;81.27;141887.48;1853501;77;22602;-60
2021/11/10 02:38:05;;;;;;;19.82;8.80;;;;;;;-1.55;80.79;141899.89;1853442;77;22135;-61
2021/11/10 02:40:41;;;;;;;18.75;8.73;;;;;;;-1.54;80.59;141902.36;1834805;77;22132;-60
2021/11/10 02:43:36;;;;;;;14.78;7.28;;;;;;;-1.49;80.28;141912.31;1835035;77;22136;-62
2021/11/10 02:46:30;;;;;;;16.45;8.58;;;;;;;-1.50;79.86;141909.80;1834946;77;22132;-64
2021/11/10 02:49:06;;;;;;;15.55;8.60;;;;;;;-1.51;79.85;141907.33;1834736;77;22134;-63
2021/11/10 02:52:00;;;;;;;18.52;9.33;;;;;;;-1.51;79.91;141908.56;1835107;77;22136;-60
2021/11/10 02:54:41;;;;;;;16.40;8.03;;;;;;;-1.48;79.69;141914.77;1834939;77;22580;-61
2021/11/10 02:57:17;;;;;;;18.32;9.28;;;;;;;-1.49;79.60;141913.53;1834801;77;22140;-61
2021/11/10 03:00:17;;;;;;;20.05;9.75;;;;;;;-1.47;79.47;141917.28;1834127;77;22168;-60
2021/11/10 03:03:12;;;;;;;18.95;8.93;;;;;;;-1.49;79.47;141912.31;1853549;77;22137;-58
2021/11/10 03:05:48;;;;;;;18.20;8.80;;;;;;;-1.51;79.56;141908.56;1834795;77;22623;-61
2021/11/10 03:08:44;;;;;;;20.70;9.93;;;;;;;-1.51;79.43;141907.33;1819359;77;27970;-59
2021/11/10 03:11:19;;;;;;;21.75;9.33;;;;;;;-1.55;79.43;141899.89;1835030;77;22136;-58
2021/11/10 03:13:55;;;;;;;17.92;9.25;;;;;;;-1.65;79.56;141875.08;1834771;77;22132;-58
2021/11/10 03:16:33;;;;;;;17.23;8.48;;;;;;;-1.68;79.73;141867.63;1853607;77;22131;-58
2021/11/10 03:19:07;;;;;;;20.48;10.20;;;;;;;-1.64;79.83;141877.53;1835031;77;22550;-58
2021/11/10 03:21:43;;;;;;;18.67;8.95;;;;;;;-1.60;79.82;141886.25;1834928;77;22156;-60
2021/11/10 03:24:25;;;;;;;16.10;8.73;;;;;;;-1.60;79.81;141887.48;1853496;77;22229;-59
2021/11/10 03:27:19;;;;;;;19.65;9.50;;;;;;;-1.54;79.79;141901.13;1853543;77;22139;-57
2021/11/10 03:30:18;;;;;;;17.92;9.00;;;;;;;-1.43;79.82;141927.19;1834765;77;22607;-58
2021/11/10 03:33:13;;;;;;;18.17;9.75;;;;;;;-1.29;79.70;141961.95;1853515;77;22230;-58
2021/11/10 03:35:48;;;;;;;17.15;8.58;;;;;;;-1.23;79.42;141975.59;1835090;77;22136;-57
2021/11/10 03:38:23;;;;;;;24.12;10.50;;;;;;;-1.20;79.27;141984.28;1835020;77;22181;-60
2021/11/10 03:41:19;;;;;;;21.68;10.00;;;;;;;-1.22;79.26;141978.06;1834989;77;22133;-56
2021/11/10 03:43:55;;;;;;;20.50;9.83;;;;;;;-1.24;79.32;141974.38;1834946;77;22181;-58
2021/11/10 03:46:31;;;;;;;24.52;12.07;;;;;;;-1.25;79.33;141971.86;1834930;77;22163;-61
2021/11/10 03:49:06;;;;;;;28.52;13.88;;;;;;;-1.26;79.34;141968.16;1819320;77;28045;-57
2021/11/10 03:51:43;;;;;;;23.95;12.82;;;;;;;-1.24;79.33;141974.38;1853495;77;22652;-58
2021/11/10 03:54:19;;;;;;;23.90;13.90;;;;;;;-1.25;79.44;141971.86;1853570;77;20210;-58
2021/11/10 03:56:53;;;;;;;22.07;14.00;;;;;;;-1.27;79.54;141966.94;1819440;77;28184;-58
2021/11/10 03:59:29;;;;;;;23.15;14.83;;;;;;;-1.20;79.53;141984.28;1819311;77;28024;-59
2021/11/10 04:02:06;;;;;;;22.80;13.03;;;;;;;-1.15;79.37;141995.47;1834959;77;22128;-56
2021/11/10 04:05:08;;;;;;;22.87;12.55;;;;;;;-1.22;79.35;141979.34;1853589;77;22677;-61
2021/11/10 04:07:49;;;;;;;17.70;9.78;;;;;;;-1.30;79.48;141959.44;1853529;77;22593;-57
2021/11/10 04:10:26;;;;;;;20.37;10.00;;;;;;;-1.42;79.59;141929.69;1834781;77;22159;-61
2021/11/10 04:13:00;;;;;;;19.77;9.95;;;;;;;-1.55;79.69;141898.66;1853581;77;22131;-63
2021/11/10 04:15:58;;;;;;;22.27;10.65;;;;;;;-1.63;79.94;141878.77;1834738;77;22140;-60
2021/11/10 04:18:55;;;;;;;21.20;11.28;;;;;;;-1.64;80.10;141877.53;1853606;77;22155;-61
2021/11/10 04:21:31;;;;;;;22.90;11.38;;;;;;;-1.64;80.19;141876.30;1853628;77;22131;-61
2021/11/10 04:24:28;;;;;;;20.52;10.88;;;;;;;-1.67;80.36;141870.09;1834804;77;22578;-60
2021/11/10 04:27:05;;;;;;;25.88;11.53;;;;;;;-1.68;80.49;141866.36;1853481;77;22131;-62
2021/11/10 04:30:11;;;;;;;22.93;10.90;;;;;;;-1.65;80.69;141875.08;1853469;77;22205;-61
2021/11/10 04:33:05;;;;;;;22.27;11.53;;;;;;;-1.67;80.58;141870.09;1834955;77;22136;-60
2021/11/10 04:35:41;;;;;;;28.20;14.30;;;;;;;-1.72;80.67;141856.45;1834979;77;22132;-61
2021/11/10 04:38:43;;;;;;;29.42;14.38;;;;;;;-1.76;80.78;141847.73;1853450;77;22195;-60
2021/11/10 04:41:18;;;;;;;28.87;14.47;;;;;;;-1.79;80.94;141841.53;1853521;77;22131;-59
2021/11/10 04:44:12;;;;;;;27.48;14.75;;;;;;;-1.80;81.13;141837.84;1834909;77;22157;-59
2021/11/10 04:46:47;;;;;;;29.72;14.05;;;;;;;-1.83;81.17;141831.64;1834949;77;22141;-62
2021/11/10 04:49:25;;;;;;;34.08;15.53;;;;;;;-1.84;81.39;141829.13;1834658;77;22212;-63
2021/11/10 04:52:03;;;;;;;29.45;13.78;;;;;;;-1.85;81.61;141826.66;1835018;77;22176;-59
2021/11/10 04:54:37;;;;;;;30.55;14.90;;;;;;;-1.81;81.74;141835.33;1853515;77;22131;-60
2021/11/10 04:57:12;;;;;;;28.87;13.45;;;;;;;-1.75;81.92;141850.25;1835011;77;22129;-57
2021/11/10 04:59:47;;;;;;;23.87;12.60;;;;;;;-1.66;81.82;141871.33;1853511;77;22136;-59
2021/11/10 05:02:28;;;;;;;23.85;10.70;;;;;;;-1.59;81.71;141888.72;1834175;77;22598;-58
2021/11/10 05:05:05;;;;;;;23.85;10.48;;;;;;;-1.52;81.60;141906.09;1834994;77;22561;-59
2021/11/10 05:07:40;;;;;;;18.82;11.50;;;;;;;-1.44;81.50;141924.72;1819590;77;28006;-58
2021/11/10 05:10:18;;;;;;;22.55;10.65;;;;;;;-1.31;81.24;141956.98;1853508;77;22136;-63
2021/11/10 05:13:14;;;;;;;18.80;9.68;;;;;;;-1.11;81.03;142005.41;1853511;77;22200;-59
2021/11/10 05:15:49;;;;;;;23.67;10.65;;;;;;;-0.65;80.78;142117.19;1853505;77;22135;-59
2021/11/10 05:18:24;;;;;;;20.55;9.98;;;;;;;-0.01;79.94;142272.50;1853465;77;22131;-57
2021/11/10 05:20:58;;;;;;;27.45;11.70;;;;;;;0.76;78.61;142459.00;1835001;77;22164;-60
2021/11/10 05:23:34;;;;;;;22.73;11.80;;;;;;;1.56;76.72;142653.12;1835002;77;22140;-59
2021/11/10 05:26:28;;;;;;;21.07;11.45;;;;;;;2.36;74.11;142849.81;1834908;77;22136;-61
2021/11/10 05:29:03;;;;;;;25.95;12.95;;;;;;;3.23;71.50;143061.69;1853573;77;22159;-59
2021/11/10 05:31:39;;;;;;;23.35;12.40;;;;;;;4.12;68.58;143278.67;1820209;77;22171;-63
2021/11/10 05:34:14;;;;;;;28.40;14.15;;;;;;;4.74;65.89;143428.41;1817294;77;38283;-62
2021/11/10 05:37:07;;;;;;;28.02;13.30;;;;;;;5.12;63.00;143520.78;1820953;77;22144;-61
2021/11/10 05:40:07;;;;;;;24.57;12.88;;;;;;;5.86;59.41;143703.13;1817831;77;22188;-58
2021/11/10 05:43:01;;;;;;;29.32;14.75;;;;;;;6.63;58.01;143890.63;1819663;77;22246;-59
2021/11/10 05:45:49;;;;;;;32.17;15.93;;;;;;;7.68;55.39;144147.02;1814954;77;22188;-58
2021/11/10 05:48:45;;;;;;;32.67;17.07;;;;;;;8.59;52.46;144368.64;1821250;77;22589;-59
2021/11/10 05:51:20;;;;;;;30.43;16.82;;;;;;;9.35;49.71;144556.52;1834991;77;22124;-61
2021/11/10 05:54:14;;;;;;;32.90;17.17;;;;;;;10.25;47.66;144774.63;1834911;77;22124;-62
2021/11/10 05:56:55;;;;;;;29.10;16.75;;;;;;;11.05;45.56;144972.86;1819259;77;22202;-63
2021/11/10 05:59:36;;;;;;;48.15;23.07;;;;;;;11.48;44.20;145077.03;1814982;77;22221;-61
2021/11/10 06:02:13;;;;;;;45.95;26.33;;;;;;;11.60;43.11;145105.88;1801331;77;38251;-60
2021/11/10 06:04:54;;;;;;;35.98;19.05;;;;;;;10.83;43.30;144917.66;1815436;77;22164;-61
2021/11/10 06:07:30;;;;;;;32.25;18.20;;;;;;;10.33;43.61;144794.72;1803963;77;28071;-62
2021/11/10 06:10:06;;;;;;;28.47;16.57;;;;;;;9.97;43.79;144706.91;1827152;77;22207;-63
2021/11/10 06:12:58;;;;;;;31.60;16.07;;;;;;;9.10;44.69;144493.88;1818820;77;22163;-58
2021/11/10 06:15:52;;;;;;;26.87;15.03;;;;;;;8.24;45.88;144284.72;1833613;77;22127;-59
2021/11/10 06:18:29;;;;;;;32.83;16.93;;;;;;;7.55;47.12;144115.73;1811743;77;22167;-62
2021/11/10 06:21:29;;;;;;;32.67;16.20;;;;;;;6.92;48.23;143960.63;1818224;77;22204;-60
2021/11/10 06:24:23;;;;;;;38.85;17.82;;;;;;;6.23;49.38;143791.88;1853472;77;22136;-64
2021/11/10 06:27:18;;;;;;;29.92;15.65;;;;;;;5.67;50.71;143655.63;1853399;77;22182;-58
2021/11/10 06:30:12;;;;;;;34.38;15.85;;;;;;;5.21;51.76;143543.23;1834900;77;22156;-59
2021/11/10 06:32:53;;;;;;;30.20;16.00;;;;;;;4.95;52.58;143480.81;1819093;77;22224;-58
2021/11/10 06:35:47;;;;;;;32.13;16.30;;;;;;;4.78;53.16;143438.36;1835187;77;22129;-62
2021/11/10 06:38:22;;;;;;;30.57;16.90;;;;;;;4.76;53.74;143433.41;1849253;77;22127;-58
2021/11/10 06:40:57;;;;;;;30.43;16.07;;;;;;;4.77;53.89;143437.13;1818455;77;22187;-59
2021/11/10 06:43:41;;;;;;;35.17;18.25;;;;;;;4.76;54.09;143433.41;1834176;77;22612;-58
2021/11/10 06:46:40;;;;;;;30.32;16.70;;;;;;;4.78;54.02;143439.64;1834310;77;22136;-60
2021/11/10 06:49:18;;;;;;;30.88;16.65;;;;;;;4.87;54.36;143460.84;1816173;77;22155;-62
2021/11/10 06:51:54;;;;;;;31.12;16.12;;;;;;;5.82;53.27;143693.11;1820857;77;22206;-59
2021/11/10 06:54:51;;;;;;;33.98;18.20;;;;;;;6.07;52.24;143753.14;1820438;77;22128;-63
2021/11/10 06:57:45;;;;;;;33.67;17.30;;;;;;;5.98;52.08;143730.63;1831356;77;22196;-62
2021/11/10 07:00:26;;;;;;;38.33;20.10;;;;;;;5.73;51.90;143670.66;1825248;77;22602;-59
2021/11/10 07:03:02;;;;;;;40.05;20.75;;;;;;;5.16;52.53;143531.98;1803554;77;28085;-62
2021/11/10 07:05:56;;;;;;;32.67;17.87;;;;;;;4.71;53.39;143420.92;1818406;77;22167;-59
2021/11/10 07:08:31;;;;;;;31.05;17.40;;;;;;;4.22;54.42;143301.09;1824290;77;22166;-60
2021/11/10 07:11:06;;;;;;;27.30;14.98;;;;;;;4.10;55.11;143272.44;1834285;77;22607;-58
2021/11/10 07:14:08;;;;;;;24.92;12.90;;;;;;;5.41;54.19;143591.94;1816484;77;22183;-60
2021/11/10 07:17:02;;;;;;;31.75;16.62;;;;;;;6.79;51.57;143928.13;1806117;77;27984;-60
2021/11/10 07:19:37;;;;;;;32.05;17.23;;;;;;;7.91;49.01;144203.38;1820297;77;22156;-60
2021/11/10 07:22:12;;;;;;;33.83;19.07;;;;;;;9.69;46.19;144639.27;1820627;77;22587;-62
2021/11/10 07:24:48;;;;;;;36.30;20.10;;;;;;;11.36;42.59;145046.91;1816379;77;22144;-62
2021/11/10 07:27:23;;;;;;;35.65;19.90;;;;;;;11.89;40.91;145177.50;1802250;77;28092;-62
2021/11/10 07:29:58;;;;;;;40.45;18.98;;;;;;;12.46;39.89;145318.14;1827842;77;22191;-60
2021/11/10 07:32:54;;;;;;;36.93;21.57;;;;;;;14.01;37.49;145699.02;1820517;77;28462;-64
2021/11/10 07:35:30;;;;;;;34.15;21.23;;;;;;;15.50;35.22;146065.28;1807100;77;22202;-61
2021/11/10 07:38:06;;;;;;;37.13;25.00;;;;;;;16.11;33.63;146213.94;1837982;77;27976;-68
2021/11/10 07:41:13;;;;;;;30.20;20.72;;;;;;;16.23;32.70;146245.42;1853574;77;22638;-64
2021/11/10 07:43:51;;;;;;;37.20;24.00;;;;;;;15.54;32.75;146074.06;1853531;77;22569;-63
2021/11/10 07:47:06;;;;;;;48.92;29.00;;;;;;;15.05;33.24;145954.47;1853531;77;22590;-63
2021/11/10 07:49:47;;;;;;;41.55;25.35;;;;;;;14.94;33.29;145928.06;1834989;77;22137;-63
2021/11/10 07:52:22;;;;;;;38.30;23.20;;;;;;;15.11;33.08;145968.31;1853270;77;22127;-66
2021/11/10 07:55:18;;;;;;;34.48;22.02;;;;;;;14.89;32.39;145915.47;1850849;77;22654;-64
2021/11/10 07:57:55;;;;;;;24.95;14.90;;;;;;;14.33;33.40;145777.03;1815776;77;28415;-59
2021/11/10 08:00:56;;;;;;;25.32;15.50;;;;;;;13.59;33.49;145595.94;1815895;77;22200;-61
2021/11/10 08:03:32;;;;;;;22.67;14.20;;;;;;;12.88;34.60;145421.19;1837725;77;27994;-60
2021/11/10 08:06:25;;;;;;;23.67;13.40;;;;;;;12.65;35.13;145364.64;1853638;77;22147;-62
2021/11/10 08:09:01;;;;;;;27.95;13.95;;;;;;;12.33;35.64;145286.73;1834893;77;22136;-67
2021/11/10 08:11:56;;;;;;;33.45;14.00;;;;;;;11.79;36.24;145152.34;1834761;77;22187;-63
2021/11/10 08:14:31;;;;;;;18.82;11.65;;;;;;;11.84;36.62;145166.16;1825869;77;22203;-64
2021/11/10 08:17:06;;;;;;;18.82;11.00;;;;;;;11.93;36.64;145188.81;1817869;77;22173;-60
2021/11/10 08:19:41;;;;;;;23.85;13.70;;;;;;;12.24;36.54;145264.16;1802523;77;38320;-68
2021/11/10 08:22:36;;;;;;;26.77;14.05;;;;;;;12.63;36.13;145359.61;1829253;77;22195;-60
2021/11/10 08:25:14;;;;;;;27.98;13.98;;;;;;;12.88;35.65;145419.94;1819545;77;27979;-69
2021/11/10 08:28:07;;;;;;;26.82;13.20;;;;;;;12.84;35.39;145411.11;1853681;77;22602;-64
2021/11/10 08:31:01;;;;;;;30.92;13.13;;;;;;;12.47;35.56;145319.44;1853499;77;22131;-62
2021/11/10 08:33:42;;;;;;;30.37;13.85;;;;;;;11.95;36.49;145193.80;1834175;77;22172;-66
2021/11/10 08:36:42;;;;;;;22.07;12.40;;;;;;;11.70;37.14;145130.98;1853612;77;22139;-64
2021/11/10 08:39:36;;;;;;;24.52;12.75;;;;;;;11.51;37.31;145084.56;1835056;77;22220;-59
2021/11/10 08:42:33;;;;;;;20.43;9.70;;;;;;;11.26;37.77;145023.06;1853365;77;22160;-67
2021/11/10 08:45:14;;;;;;;19.00;9.28;;;;;;;11.01;37.75;144961.56;1835041;77;22128;-63
2021/11/10 08:47:58;;;;;;;16.95;9.25;;;;;;;10.55;38.26;144849.91;1834232;77;20461;-63
2021/11/10 08:50:58;;;;;;;19.75;9.80;;;;;;;10.02;39.17;144718.20;1833880;77;22227;-65
2021/11/10 08:53:54;;;;;;;20.17;10.18;;;;;;;9.66;40.21;144631.70;1833176;77;22327;-66
2021/11/10 08:56:49;;;;;;;18.70;9.93;;;;;;;9.07;40.35;144486.38;1853592;77;22574;-63
2021/11/10 08:59:36;;;;;;;15.08;7.50;;;;;;;8.43;41.00;144331.08;1820164;77;22661;-62
2021/11/10 09:02:17;;;;;;;15.70;8.58;;;;;;;8.04;41.26;144234.66;1852873;77;22159;-59
2021/11/10 09:04:51;;;;;;;16.55;9.23;;;;;;;7.67;41.92;144143.28;1811579;77;22660;-64
2021/11/10 09:07:46;;;;;;;21.25;11.93;;;;;;;7.29;42.98;144050.70;1815343;77;22193;-63
2021/11/10 09:10:21;;;;;;;18.27;11.43;;;;;;;7.04;43.68;143990.66;1819432;77;28374;-63
2021/11/10 09:12:56;;;;;;;18.02;9.95;;;;;;;6.83;43.89;143938.16;1834872;77;22578;-64
2021/11/10 09:15:33;;;;;;;19.32;9.68;;;;;;;6.50;44.10;143858.13;1835028;77;22157;-62
2021/11/10 09:18:27;;;;;;;17.62;9.45;;;;;;;6.11;44.33;143763.16;1817328;77;22196;-59
2021/11/10 09:21:02;;;;;;;19.15;11.25;;;;;;;5.89;44.72;143709.37;1819192;77;28001;-61
2021/11/10 09:23:39;;;;;;;18.60;9.80;;;;;;;5.88;45.19;143706.89;1834904;77;22625;-65
2021/11/10 09:26:42;;;;;;;16.32;9.48;;;;;;;5.91;45.50;143713.13;1853668;77;22329;-63
2021/11/10 09:29:37;;;;;;;18.62;9.18;;;;;;;5.95;45.19;143723.14;1834854;77;22167;-62
2021/11/10 09:32:32;;;;;;;18.87;10.53;;;;;;;5.90;45.47;143710.59;1834791;77;22144;-65
2021/11/10 09:35:27;;;;;;;16.42;9.20;;;;;;;5.94;45.50;143720.67;1834926;77;22181;-62
2021/11/10 09:38:27;;;;;;;18.92;8.88;;;;;;;5.71;44.43;143665.64;1834170;77;22163;-60
2021/11/10 09:41:28;;;;;;;19.00;9.45;;;;;;;5.62;44.48;143644.42;1833930;77;22283;-65
2021/11/10 09:44:03;;;;;;;18.77;9.55;;;;;;;5.60;44.38;143638.19;1835018;77;22132;-63
2021/11/10 09:47:00;;;;;;;20.57;9.85;;;;;;;5.62;43.79;143644.42;1835015;77;22133;-63
2021/11/10 09:49:34;;;;;;;16.17;9.48;;;;;;;5.66;43.93;143653.16;1835048;77;22551;-61
2021/11/10 09:52:09;;;;;;;19.27;10.50;;;;;;;5.67;44.44;143655.63;1834834;77;22169;-63
2021/11/10 09:54:50;;;;;;;16.77;9.63;;;;;;;5.64;44.20;143648.14;1834157;77;22631;-60
2021/11/10 09:57:47;;;;;;;21.77;12.03;;;;;;;5.65;44.71;143650.67;1833611;77;22240;-62
2021/11/10 10:00:52;;;;;;;16.67;9.30;;;;;;;5.74;45.42;143673.13;1834396;77;22160;-62
2021/11/10 10:03:54;;;;;;;21.85;11.90;;;;;;;6.02;45.14;143740.66;1834128;77;22615;-61
2021/11/10 10:06:30;;;;;;;23.77;10.50;;;;;;;6.25;44.84;143798.13;1835090;77;20453;-62
2021/11/10 10:09:23;;;;;;;22.13;11.90;;;;;;;6.58;44.68;143878.13;1834946;77;22164;-63
2021/11/10 10:12:19;;;;;;;19.57;9.63;;;;;;;6.86;44.52;143945.64;1853487;77;22198;-59
2021/11/10 10:15:04;;;;;;;23.32;10.95;;;;;;;7.06;43.37;143995.66;1853617;77;22218;-64
2021/11/10 10:17:45;;;;;;;18.92;10.18;;;;;;;7.11;42.50;144008.17;1834935;77;22582;-63
2021/11/10 10:20:33;;;;;;;22.37;10.03;;;;;;;7.06;41.74;143995.66;1834918;77;22156;-63
2021/11/10 10:23:15;;;;;;;18.82;10.32;;;;;;;7.07;41.94;143998.19;1834552;77;22179;-62
2021/11/10 10:26:00;;;;;;;14.07;7.83;;;;;;;7.12;42.26;144010.70;1834983;77;22124;-60
2021/11/10 10:28:46;;;;;;;16.12;7.28;;;;;;;7.20;41.64;144029.45;1835036;77;22575;-60
2021/11/10 10:31:39;;;;;;;16.60;8.50;;;;;;;7.18;40.99;144025.69;1834867;77;22126;-64
2021/11/10 10:34:18;;;;;;;16.15;7.92;;;;;;;7.11;40.89;144008.17;1834905;77;22160;-60
2021/11/10 10:37:27;;;;;;;16.35;7.33;;;;;;;6.89;41.58;143953.14;1834056;77;22164;-60
2021/11/10 10:40:22;;;;;;;17.02;7.70;;;;;;;6.92;41.91;143960.63;1834817;77;22136;-63
2021/11/10 10:43:19;;;;;;;15.65;7.75;;;;;;;6.95;41.01;143968.17;1834811;77;22148;-63
2021/11/10 10:46:13;;;;;;;16.40;9.00;;;;;;;6.91;41.00;143958.16;1819398;77;27966;-63
2021/11/10 10:49:20;;;;;;;17.15;7.95;;;;;;;6.96;41.07;143970.66;1853687;77;22615;-64
2021/11/10 10:52:13;;;;;;;12.43;6.75;;;;;;;6.97;41.01;143973.13;1853588;77;22606;-64
2021/11/10 10:54:51;;;;;;;10.65;6.53;;;;;;;7.00;40.94;143979.44;1819315;77;38297;-62
2021/11/10 10:57:57;;;;;;;13.00;6.70;;;;;;;7.06;40.50;143994.42;1853878;77;22286;-61
2021/11/10 11:00:48;;;;;;;14.28;6.58;;;;;;;7.05;40.43;143993.19;1835087;77;20095;-63
2021/11/10 11:04:03;;;;;;;17.20;8.18;;;;;;;7.08;40.35;143999.44;1823625;77;22199;-63
2021/11/10 11:07:02;;;;;;;15.68;8.10;;;;;;;7.14;40.15;144015.66;1822571;77;22249;-64
2021/11/10 11:09:53;;;;;;;18.27;8.40;;;;;;;7.05;39.97;143991.94;1831927;77;22222;-64
2021/11/10 11:12:52;;;;;;;18.70;10.20;;;;;;;6.84;40.82;143940.63;1802781;77;28567;-60
2021/11/10 11:16:06;;;;;;;18.17;7.97;;;;;;;7.05;40.95;143993.19;1834559;77;22171;-62
2021/11/10 11:19:17;;;;;;;16.42;7.90;;;;;;;7.11;40.26;144006.92;1817846;77;22241;-64
2021/11/10 11:21:59;;;;;;;15.90;7.58;;;;;;;7.25;39.53;144040.69;1816665;77;22224;-64
2021/11/10 11:24:54;;;;;;;16.48;8.13;;;;;;;7.46;39.20;144092.00;1818883;77;22184;-65
2021/11/10 11:28:00;;;;;;;19.23;7.90;;;;;;;7.65;39.25;144138.28;1816927;77;22229;-61
2021/11/10 11:30:42;;;;;;;15.05;7.70;;;;;;;7.83;39.05;144183.31;1830961;77;22143;-62
2021/11/10 11:33:47;;;;;;;18.62;7.28;;;;;;;7.92;38.63;144204.61;1814615;77;22680;-62
2021/11/10 11:36:55;;;;;;;17.12;7.15;;;;;;;8.01;38.35;144228.41;1817693;77;22184;-61
2021/11/10 11:39:37;;;;;;;15.95;8.60;;;;;;;8.20;38.39;144274.69;1817726;77;22172;-59
2021/11/10 11:42:12;;;;;;;11.63;6.33;;;;;;;8.43;37.83;144329.83;1817908;77;22287;-60
2021/11/10 11:44:47;;;;;;;12.63;6.70;;;;;;;8.52;36.46;144351.09;1802676;77;28485;-61
2021/11/10 11:47:24;;;;;;;10.45;6.20;;;;;;;8.56;36.17;144361.13;1820017;77;22693;-63
2021/11/10 11:50:19;;;;;;;12.45;5.95;;;;;;;8.65;35.90;144383.64;1821139;77;22222;-60
2021/11/10 11:52:55;;;;;;;13.45;6.30;;;;;;;8.76;35.68;144409.98;1831123;77;22167;-61
2021/11/10 11:55:50;;;;;;;14.23;6.58;;;;;;;8.81;34.45;144423.75;1822481;77;22626;-65
2021/11/10 11:58:33;;;;;;;15.18;6.78;;;;;;;8.71;34.46;144398.70;1853435;77;22609;-62
2021/11/10 12:01:13;;;;;;;11.80;5.33;;;;;;;8.75;34.00;144408.73;1819326;77;23854;-60
2021/11/10 12:03:58;;;;;;;9.08;4.85;;;;;;;8.66;32.74;144386.17;1803477;77;28121;-62
2021/11/10 12:06:53;;;;;;;11.53;4.85;;;;;;;8.38;31.85;144318.50;1818315;77;22217;-64
2021/11/10 12:09:33;;;;;;;12.82;5.08;;;;;;;8.16;31.51;144264.66;1817845;77;22175;-63
2021/11/10 12:12:14;;;;;;;13.00;5.40;;;;;;;8.05;31.75;144238.37;1820709;77;23232;-61
2021/11/10 12:15:15;;;;;;;13.20;6.85;;;;;;;8.19;31.97;144270.92;1811736;77;22166;-60
2021/11/10 12:18:08;;;;;;;10.38;5.05;;;;;;;8.28;32.22;144293.47;1816375;77;22217;-62
2021/11/10 12:20:43;;;;;;;14.75;7.58;;;;;;;8.44;31.88;144333.56;1816636;77;22152;-64
2021/11/10 12:23:18;;;;;;;17.00;8.40;;;;;;;8.56;31.85;144362.38;1853604;77;22558;-60
2021/11/10 12:26:06;;;;;;;20.20;10.08;;;;;;;8.66;31.91;144386.17;1818137;77;28488;-60
2021/11/10 12:28:57;;;;;;;18.05;8.38;;;;;;;8.73;31.86;144402.42;1853651;77;22119;-61
2021/11/10 12:31:49;;;;;;;13.13;6.95;;;;;;;8.82;31.81;144426.23;1853394;77;22164;-66
2021/11/10 12:34:33;;;;;;;17.02;8.38;;;;;;;8.81;32.21;144423.75;1834997;77;22153;-63
2021/11/10 12:37:10;;;;;;;18.25;8.80;;;;;;;8.95;32.33;144456.30;1835051;77;22160;-61
2021/11/10 12:40:12;;;;;;;14.55;8.15;;;;;;;9.04;32.60;144478.87;1834865;77;22160;-65
2021/11/10 12:43:05;;;;;;;16.65;9.33;;;;;;;9.14;32.67;144503.92;1828427;77;22230;-60
2021/11/10 12:45:54;;;;;;;17.35;8.98;;;;;;;9.18;32.42;144513.91;1817252;77;22249;-63